Time;durP1;ratioP1;P1;durP2;ratioP2;P2;SDS_P1;SDS_P2;PMS_P1;PMS_P2;Temp;Humidity;BMP_temperature;BMP_pressure;BME280_temperature;BME280_humidity;BME280_pressure;Samples;Min_cycle;Max_cycle;Signal;HPM_P1;HPM_P2
2022/05/26 00:01:32;;;;;;;1.30;0.60;;;;;;;14.69;54.28;100112.72;10390940;28;20062;-80
2022/05/26 00:06:33;;;;;;;1.92;1.00;;;;;;;14.61;54.50;100106.03;10390166;28;20451;-80
2022/05/26 00:11:37;;;;;;;1.55;0.60;;;;;;;14.77;53.47;100113.22;10373363;28;20050;-80
2022/05/26 00:16:42;;;;;;;1.67;0.82;;;;;;;14.83;52.87;100112.91;10306705;28;20071;-80
2022/05/26 00:21:45;;;;;;;1.38;0.75;;;;;;;14.96;51.76;100110.53;10269751;28;20476;-79
2022/05/26 00:26:47;;;;;;;1.73;0.77;;;;;;;15.07;50.50;100106.44;10268293;28;20112;-80
2022/05/26 00:31:48;;;;;;;2.10;0.57;;;;;;;14.97;50.52;100109.63;10266206;28;20047;-80
2022/05/26 00:36:50;;;;;;;1.13;0.68;;;;;;;15.08;49.16;100102.84;10267686;29;20496;-78
2022/05/26 00:41:54;;;;;;;2.55;0.68;;;;;;;15.22;48.87;100104.81;10264078;28;20386;-80
2022/05/26 00:47:02;;;;;;;1.15;0.50;;;;;;;15.19;48.70;100096.19;10262438;29;20043;-78
2022/05/26 00:52:06;;;;;;;1.30;0.40;;;;;;;15.14;48.68;100099.91;10264389;28;20070;-80
2022/05/26 00:57:14;;;;;;;0.73;0.50;;;;;;;15.19;48.55;100090.91;10265655;28;20051;-80
2022/05/26 01:02:20;;;;;;;2.40;0.70;;;;;;;15.11;48.79;100089.47;10261951;28;20069;-79
2022/05/26 01:07:35;;;;;;;1.67;0.70;;;;;;;14.98;49.19;100098.94;10257460;29;20051;-80
2022/05/26 01:12:37;;;;;;;1.65;0.50;;;;;;;15.02;48.79;100100.53;10257049;28;20796;-80
2022/05/26 01:18:14;;;;;;;1.67;0.70;;;;;;;15.01;48.67;100100.59;10258837;29;20047;-80
2022/05/26 01:23:55;;;;;;;0.75;0.70;;;;;;;14.98;48.79;100103.41;10258221;28;20093;-80
2022/05/26 01:29:15;;;;;;;2.17;0.60;;;;;;;15.00;48.56;100106.81;10249912;29;20066;-80
2022/05/26 01:34:29;;;;;;;1.05;0.60;;;;;;;14.95;48.86;100103.53;10257759;28;20047;-79
2022/05/26 01:39:37;;;;;;;1.88;0.57;;;;;;;14.94;48.66;100097.38;10258157;28;20047;-80
2022/05/26 01:45:13;;;;;;;1.70;0.60;;;;;;;14.95;48.51;100088.50;10256844;28;20055;-80
2022/05/26 01:50:28;;;;;;;0.57;0.45;;;;;;;15.05;48.56;100096.84;10207118;28;20055;-80
2022/05/26 01:55:51;;;;;;;1.40;0.75;;;;;;;15.07;48.22;100090.56;10260091;28;20048;-80
2022/05/26 02:00:55;;;;;;;0.82;0.45;;;;;;;15.03;48.53;100089.00;10295796;28;20031;-79
2022/05/26 02:06:11;;;;;;;0.50;0.40;;;;;;;15.16;48.11;100088.38;10267819;28;20101;-79
2022/05/26 02:11:16;;;;;;;0.70;0.47;;;;;;;15.26;47.88;100089.63;10255740;29;20054;-79
2022/05/26 02:16:20;;;;;;;1.17;0.57;;;;;;;15.32;47.62;100089.34;10263170;28;20150;-79
2022/05/26 02:21:39;;;;;;;1.20;0.50;;;;;;;15.32;47.72;100090.19;10261926;28;20047;-80
2022/05/26 02:26:40;;;;;;;2.28;0.60;;;;;;;15.27;47.69;100094.00;10381497;22;20046;-82
2022/05/26 02:31:43;;;;;;;3.72;0.70;;;;;;;15.19;48.36;100093.53;10333239;28;20046;-82
2022/05/26 02:36:48;;;;;;;1.33;0.50;;;;;;;15.31;47.96;100099.06;10345379;28;20074;-82
2022/05/26 02:41:52;;;;;;;1.30;0.50;;;;;;;15.36;47.88;100098.81;10346662;28;20055;-83
2022/05/26 02:47:09;;;;;;;1.42;0.40;;;;;;;15.31;48.02;100098.19;10346260;28;20084;-83
2022/05/26 02:52:40;;;;;;;1.85;0.57;;;;;;;15.22;48.13;100093.38;10356869;28;20146;-82
2022/05/26 02:58:03;;;;;;;1.38;0.50;;;;;;;15.23;48.30;100089.78;10359454;28;20054;-83
2022/05/26 03:03:15;;;;;;;1.20;0.47;;;;;;;15.16;48.51;100096.34;10351452;28;20484;-83
2022/05/26 03:08:20;;;;;;;0.85;0.38;;;;;;;15.26;47.96;100094.94;10361310;28;20057;-82
2022/05/26 03:13:22;;;;;;;0.80;0.40;;;;;;;15.28;47.78;100096.59;10370556;28;20057;-82
2022/05/26 03:18:23;;;;;;;1.90;0.40;;;;;;;15.34;47.84;100090.13;10339299;28;20061;-83
2022/05/26 03:23:25;;;;;;;1.08;0.60;;;;;;;15.24;47.97;100088.88;10350086;28;20511;-84
2022/05/26 03:28:28;;;;;;;0.55;0.50;;;;;;;15.22;48.11;100096.00;10348062;28;20053;-83
2022/05/26 03:40:45;;;;;;;0.90;0.40;;;;;;;15.24;48.17;100095.03;10346659;28;20076;-83
2022/05/26 03:44:12;;;;;;;9.27;0.40;;;;;;;15.18;48.83;100100.59;10347134;28;20046;-83
2022/05/26 03:49:13;;;;;;;2.03;0.55;;;;;;;15.31;48.29;100106.16;10344382;28;20034;-83
2022/05/26 03:54:15;;;;;;;1.52;0.65;;;;;;;15.32;48.66;100113.19;10345433;28;20054;-83
2022/05/26 03:59:17;;;;;;;0.50;0.40;;;;;;;15.33;48.97;100128.13;10347459;28;20049;-84
2022/05/26 04:04:18;;;;;;;1.88;0.45;;;;;;;15.41;48.91;100128.59;10332251;28;20080;-84
2022/05/26 04:09:20;;;;;;;0.80;0.35;;;;;;;15.66;48.73;100114.13;10349644;28;20084;-84
2022/05/26 04:14:22;;;;;;;0.98;0.40;;;;;;;15.59;48.61;100125.03;10347147;28;20167;-84
2022/05/26 04:19:23;;;;;;;1.75;0.60;;;;;;;15.64;48.80;100130.13;10347755;28;20046;-84
2022/05/26 04:24:25;;;;;;;0.93;0.57;;;;;;;15.67;49.20;100131.75;10348569;28;20100;-83
2022/05/26 04:29:26;;;;;;;0.82;0.30;;;;;;;15.74;49.13;100126.06;10346581;28;20049;-84
2022/05/26 04:34:28;;;;;;;0.55;0.43;;;;;;;15.97;48.73;100139.91;10345855;28;20050;-84
2022/05/26 04:39:30;;;;;;;0.82;0.40;;;;;;;16.07;48.45;100139.38;10347063;28;20042;-83
2022/05/26 04:44:39;;;;;;;1.13;0.40;;;;;;;16.27;48.48;100142.75;10346972;28;20116;-84
2022/05/26 04:49:41;;;;;;;1.50;0.40;;;;;;;16.32;48.10;100141.53;10348953;28;20054;-83
2022/05/26 04:54:44;;;;;;;1.38;0.60;;;;;;;16.45;48.33;100149.69;10340462;28;20046;-82
2022/05/26 04:59:45;;;;;;;1.23;0.47;;;;;;;16.62;48.02;100151.44;10378323;28;20035;-83
2022/05/26 05:04:48;;;;;;;0.77;0.43;;;;;;;16.67;48.03;100151.19;10355132;28;20096;-83
2022/05/26 05:09:50;;;;;;;0.90;0.40;;;;;;;16.72;48.59;100163.28;10365445;28;20156;-83
2022/05/26 05:14:54;;;;;;;2.38;0.40;;;;;;;16.64;48.08;100168.13;10347879;28;20050;-82
2022/05/26 05:19:56;;;;;;;2.08;0.43;;;;;;;16.61;48.98;100177.13;10336790;28;20427;-83
2022/05/26 05:25:03;;;;;;;1.00;0.50;;;;;;;16.66;48.72;100182.19;10340633;28;20115;-83
2022/05/26 05:30:10;;;;;;;0.95;0.30;;;;;;;16.67;49.54;100183.03;10343179;28;20042;-82
2022/05/26 05:35:18;;;;;;;0.95;0.30;;;;;;;16.80;49.39;100195.59;10347382;28;20057;-83
2022/05/26 05:40:19;;;;;;;;;;;;;;;16.79;48.62;100195.69;10347471;28;20046;-83
2022/05/26 05:45:20;;;;;;;1.10;0.40;;;;;;;16.87;48.54;100196.97;10341715;28;19926;-83
2022/05/26 05:50:22;;;;;;;1.30;0.40;;;;;;;16.75;50.45;100186.16;10342651;28;20066;-84
2022/05/26 05:55:25;;;;;;;1.15;0.40;;;;;;;17.23;48.02;100189.69;10327152;28;20396;-84
2022/05/26 06:00:26;;;;;;;1.42;0.40;;;;;;;17.32;48.48;100199.78;10367167;28;20049;-83
2022/05/26 06:05:31;;;;;;;2.30;0.40;;;;;;;17.10;48.86;100210.78;10364230;28;20515;-83
2022/05/26 06:10:33;;;;;;;2.97;0.73;;;;;;;17.13;48.96;100216.78;10347293;28;20473;-83
2022/05/26 06:15:34;;;;;;;1.55;0.68;;;;;;;17.10;48.32;100218.72;10369951;28;20022;-83
2022/05/26 06:20:40;;;;;;;1.75;0.40;;;;;;;17.20;49.27;100217.28;10360452;28;20103;-83
2022/05/26 06:25:42;;;;;;;4.57;0.57;;;;;;;17.06;49.89;100230.47;10347929;28;20046;-83
2022/05/26 06:30:43;;;;;;;1.17;0.30;;;;;;;17.14;48.94;100230.91;10352788;28;20046;-83
2022/05/26 06:46:44;;;;;;;2.33;0.50;;;;;;;17.51;48.73;100231.47;10335365;28;20056;-81
2022/05/26 06:51:46;;;;;;;3.60;0.57;;;;;;;17.66;48.99;100238.56;10334131;28;20077;-81
2022/05/26 06:56:47;;;;;;;1.63;0.35;;;;;;;17.86;47.12;100243.59;10327463;28;20058;-81
2022/05/26 07:01:49;;;;;;;3.00;0.60;;;;;;;18.19;47.38;100247.88;10358634;28;20046;-82
2022/05/26 07:06:53;;;;;;;2.58;0.43;;;;;;;18.07;46.54;100246.81;10346582;28;20057;-81
2022/05/26 07:11:54;;;;;;;1.08;0.32;;;;;;;18.05;46.65;100256.66;10352164;28;20052;-81
2022/05/26 07:16:56;;;;;;;3.55;0.50;;;;;;;18.13;46.20;100256.22;10349467;28;20067;-80
2022/05/26 07:21:57;;;;;;;1.77;0.38;;;;;;;18.10;47.84;100261.72;10329841;28;20450;-79
2022/05/26 07:27:00;;;;;;;6.30;0.47;;;;;;;18.27;46.83;100260.72;10359128;28;20046;-79
2022/05/26 07:32:04;;;;;;;3.85;0.43;;;;;;;17.93;48.12;100273.38;10375694;28;20030;-80
2022/05/26 07:42:31;;;;;;;0.32;0.20;;;;;;;18.46;46.79;100255.13;10357294;28;20046;-83
2022/05/26 07:47:33;;;;;;;1.27;0.40;;;;;;;18.74;46.65;100257.88;10347776;28;20050;-82
2022/05/26 07:52:34;;;;;;;2.03;0.40;;;;;;;19.10;46.38;100261.84;10347270;28;20046;-83
2022/05/26 07:57:37;;;;;;;0.57;0.30;;;;;;;19.23;46.06;100267.25;10348794;28;20103;-83
2022/05/26 08:02:42;;;;;;;1.83;0.40;;;;;;;19.43;46.61;100258.78;10416385;28;20466;-83
2022/05/26 08:07:47;;;;;;;1.48;0.40;;;;;;;19.14;45.72;100271.34;10330894;28;20046;-83
2022/05/26 08:12:51;;;;;;;1.55;0.32;;;;;;;19.14;45.98;100280.19;10343397;28;20538;-82
2022/05/26 08:17:52;;;;;;;1.77;0.50;;;;;;;19.33;46.30;100276.34;10330006;28;20115;-82
2022/05/26 08:22:54;;;;;;;2.58;0.60;;;;;;;19.52;46.55;100276.88;10364523;22;20027;-81
2022/05/26 08:27:56;;;;;;;1.63;0.40;;;;;;;19.74;46.39;100289.69;10345852;28;20041;-82
2022/05/26 08:32:57;;;;;;;3.03;0.50;;;;;;;20.11;45.13;100282.75;10345601;28;20042;-84
2022/05/26 08:37:59;;;;;;;0.93;0.32;;;;;;;20.14;45.80;100282.56;10344737;28;20058;-79
2022/05/26 08:43:04;;;;;;;1.98;0.50;;;;;;;20.08;45.49;100292.78;10340834;28;20047;-78
2022/05/26 08:48:06;;;;;;;1.20;0.30;;;;;;;20.55;44.72;100291.41;10340629;28;20051;-79
2022/05/26 08:53:23;;;;;;;3.47;0.40;;;;;;;21.02;43.74;100297.88;10342743;28;20046;-78
2022/05/26 08:58:32;;;;;;;0.88;0.30;;;;;;;20.70;43.81;100305.50;10341042;28;20115;-78
2022/05/26 09:03:35;;;;;;;0.93;0.30;;;;;;;20.62;45.14;100311.38;10341692;28;20043;-79
2022/05/26 09:14:41;;;;;;;0.80;0.30;;;;;;;20.96;43.62;100303.69;10342565;28;20092;-78
2022/05/26 09:19:42;;;;;;;0.70;0.20;;;;;;;20.58;43.15;100307.19;10339430;28;20039;-79
2022/05/26 09:24:44;;;;;;;4.28;0.30;;;;;;;20.35;44.24;100314.09;10339860;28;20046;-80
2022/05/26 09:29:45;;;;;;;1.95;0.30;;;;;;;20.56;44.03;100306.47;10339538;28;20046;-78
2022/05/26 09:35:05;;;;;;;1.40;0.30;;;;;;;21.36;42.77;100315.09;10340285;28;20053;-78
2022/05/26 09:40:31;;;;;;;1.63;0.40;;;;;;;21.26;41.39;100303.31;10339662;28;20106;-80
2022/05/26 09:45:42;;;;;;;0.82;0.30;;;;;;;20.71;43.46;100324.09;10342277;28;20492;-79
2022/05/26 09:51:05;;;;;;;1.52;0.40;;;;;;;20.33;43.40;100318.69;10338596;28;20046;-79
2022/05/26 09:56:11;;;;;;;1.98;0.20;;;;;;;19.98;44.66;100327.22;10339537;28;20076;-80
2022/05/26 10:01:26;;;;;;;0.57;0.35;;;;;;;19.98;45.70;100321.91;10339243;28;20034;-78
2022/05/26 10:06:35;;;;;;;1.42;0.50;;;;;;;20.55;43.91;100321.63;10342090;28;20053;-81
2022/05/26 10:12:03;;;;;;;1.45;0.25;;;;;;;21.20;43.75;100327.78;10351668;28;20073;-80
2022/05/26 10:17:28;;;;;;;1.15;0.20;;;;;;;21.89;40.79;100321.00;10351236;28;20042;-80
2022/05/26 10:22:57;;;;;;;0.40;0.25;;;;;;;22.30;39.49;100325.09;10372754;28;20030;-78
2022/05/26 10:28:32;;;;;;;0.98;0.30;;;;;;;22.61;38.36;100339.66;10355561;28;20043;-79
2022/05/26 10:33:52;;;;;;;1.90;0.50;;;;;;;22.64;40.28;100318.00;10352931;28;20061;-78
2022/05/26 10:39:29;;;;;;;0.35;0.25;;;;;;;22.68;39.14;100311.44;10353455;28;20042;-77
2022/05/26 10:44:48;;;;;;;1.35;0.30;;;;;;;22.38;39.27;100320.84;10368242;28;20160;-77
2022/05/26 10:50:06;;;;;;;2.42;0.45;;;;;;;22.34;39.58;100318.53;10345031;28;20043;-77
2022/05/26 10:55:15;;;;;;;1.58;0.38;;;;;;;22.21;39.56;100305.22;10342538;28;20046;-78
2022/05/26 11:00:21;;;;;;;1.30;0.32;;;;;;;22.13;39.95;100315.66;10349894;28;20039;-79
2022/05/26 11:05:35;;;;;;;0.40;0.20;;;;;;;21.50;40.48;100322.09;10344461;28;20046;-78
2022/05/26 11:11:15;;;;;;;0.98;0.30;;;;;;;21.33;43.41;100326.84;10347047;28;20052;-79
2022/05/26 11:21:44;;;;;;;0.85;0.20;;;;;;;21.68;42.37;100323.44;10486929;28;20496;-77
2022/05/26 11:27:16;;;;;;;2.05;0.93;;;;;;;22.06;41.83;100323.28;10556144;28;20040;-77
2022/05/26 11:37:56;;;;;;;0.70;0.25;;;;;;;21.00;44.27;100339.91;10555209;28;20044;-79
2022/05/26 11:42:58;;;;;;;1.00;0.38;;;;;;;20.80;43.15;100333.28;10578333;28;20051;-77
2022/05/26 11:48:04;;;;;;;0.90;0.20;;;;;;;21.07;43.58;100320.69;10587031;28;20036;-77
2022/05/26 11:53:36;;;;;;;2.00;0.40;;;;;;;20.71;43.87;100326.75;10573424;28;20121;-79
2022/05/26 11:58:42;;;;;;;1.73;0.35;;;;;;;20.77;44.07;100334.38;10555594;28;20051;-79
2022/05/26 12:04:19;;;;;;;0.40;0.28;;;;;;;20.42;44.08;100328.75;10555379;28;20500;-80
2022/05/26 12:09:34;;;;;;;0.43;0.30;;;;;;;20.84;44.29;100322.28;10541874;28;20139;-80
2022/05/26 12:14:57;;;;;;;2.65;0.38;;;;;;;21.44;44.04;100311.88;10553714;28;20040;-79
2022/05/26 12:20:10;;;;;;;1.30;0.40;;;;;;;21.02;42.89;100309.44;10551170;28;20500;-77
2022/05/26 12:25:27;;;;;;;0.68;0.40;;;;;;;20.87;43.69;100315.88;10533018;28;20051;-78
2022/05/26 12:30:33;;;;;;;2.03;0.40;;;;;;;21.51;42.51;100305.94;10552070;28;20044;-78
2022/05/26 12:35:46;;;;;;;1.58;0.50;;;;;;;22.52;42.83;100305.56;10574000;28;20052;-78
2022/05/26 12:41:11;;;;;;;1.85;0.40;;;;;;;22.93;41.40;100299.66;10576635;28;20047;-78
2022/05/26 12:46:51;;;;;;;1.65;0.50;;;;;;;21.89;40.28;100302.25;10573658;28;20048;-79
2022/05/26 12:52:16;;;;;;;0.80;0.30;;;;;;;21.45;42.38;100300.19;10578398;28;20043;-78
2022/05/26 12:57:23;;;;;;;1.17;0.50;;;;;;;21.23;42.86;100296.34;10577168;28;20043;-77
2022/05/26 13:02:28;;;;;;;1.35;0.50;;;;;;;21.95;44.25;100288.41;10580631;28;20546;-78
2022/05/26 13:07:29;;;;;;;2.70;0.40;;;;;;;22.36;42.12;100273.75;10577577;28;20047;-77
2022/05/26 13:12:31;;;;;;;1.33;0.40;;;;;;;22.72;39.93;100298.66;10567064;28;20052;-79
2022/05/26 13:17:33;;;;;;;1.25;0.20;;;;;;;22.65;40.26;100283.03;10567242;28;20055;-79
2022/05/26 13:22:37;;;;;;;0.90;0.40;;;;;;;22.60;40.34;100281.69;10579597;28;20070;-77
2022/05/26 13:27:39;;;;;;;1.50;0.28;;;;;;;22.06;39.12;100282.28;10585669;28;20084;-78
2022/05/26 13:38:01;;;;;;;1.17;0.30;;;;;;;20.86;42.37;100298.13;10553394;28;20051;-80
2022/05/26 13:43:02;;;;;;;1.10;0.22;;;;;;;20.62;43.05;100293.53;10550142;28;20040;-78
2022/05/26 13:48:31;;;;;;;0.88;0.35;;;;;;;20.40;43.84;100293.25;10548051;28;20485;-79
2022/05/26 13:53:38;;;;;;;1.40;0.40;;;;;;;20.64;44.21;100294.28;10558084;28;20036;-79
2022/05/26 13:58:44;;;;;;;0.73;0.30;;;;;;;21.48;43.27;100282.09;10558316;28;20099;-78
2022/05/26 14:03:54;;;;;;;1.02;0.40;;;;;;;21.50;41.86;100277.47;10549282;28;20127;-79
2022/05/26 14:08:57;;;;;;;1.05;0.30;;;;;;;21.49;43.62;100283.81;10551535;28;20382;-79
2022/05/26 14:14:23;;;;;;;2.15;0.40;;;;;;;21.20;42.55;100285.88;10555485;28;20032;-79
2022/05/26 14:19:33;;;;;;;1.17;0.47;;;;;;;21.22;43.25;100293.81;10537941;28;20040;-79
2022/05/26 14:24:41;;;;;;;1.92;0.55;;;;;;;21.14;43.51;100286.31;10488686;22;20051;-80
2022/05/26 14:29:45;;;;;;;1.67;0.38;;;;;;;21.02;43.17;100284.53;10301027;28;20044;-80
2022/05/26 14:34:50;;;;;;;0.82;0.60;;;;;;;21.13;43.34;100290.81;10279614;28;20046;-82
2022/05/26 14:39:52;;;;;;;1.52;0.30;;;;;;;21.49;43.45;100285.63;10276442;28;20043;-81
2022/05/26 14:44:55;;;;;;;1.08;0.30;;;;;;;21.84;43.87;100277.66;10279628;28;20048;-81
2022/05/26 14:49:56;;;;;;;0.70;0.30;;;;;;;22.29;41.68;100272.50;10280706;28;20067;-82
2022/05/26 15:00:23;;;;;;;0.65;0.40;;;;;;;21.58;42.79;100275.09;10279628;29;20047;-82
2022/05/26 15:05:27;;;;;;;1.80;0.40;;;;;;;21.21;44.64;100278.75;10274990;28;20122;-82
2022/05/26 15:10:29;;;;;;;1.77;0.40;;;;;;;21.06;45.90;100265.50;10284137;28;20051;-82
2022/05/26 15:15:30;;;;;;;2.85;0.30;;;;;;;20.98;44.59;100267.84;10259185;28;20382;-82
2022/05/26 15:20:32;;;;;;;1.77;0.60;;;;;;;20.93;44.33;100264.66;10273300;29;20078;-82
2022/05/26 15:25:33;;;;;;;1.75;0.50;;;;;;;20.98;45.20;100249.13;10274021;28;20074;-82
2022/05/26 15:30:35;;;;;;;1.17;0.45;;;;;;;21.41;44.73;100254.94;10272862;28;20055;-82
2022/05/26 15:35:36;;;;;;;1.40;0.40;;;;;;;21.51;43.92;100254.25;10276616;28;20055;-82
2022/05/26 15:40:38;;;;;;;1.30;0.30;;;;;;;21.37;44.70;100248.09;10281155;29;20154;-82
2022/05/26 15:45:40;;;;;;;0.52;0.30;;;;;;;21.83;44.44;100250.06;10293637;28;20031;-82
2022/05/26 15:50:41;;;;;;;2.40;0.63;;;;;;;22.08;43.60;100262.44;10288032;29;20050;-81
2022/05/26 15:55:45;;;;;;;3.78;0.88;;;;;;;22.47;41.97;100241.63;10273214;28;20054;-82
2022/05/26 16:00:46;;;;;;;2.08;0.60;;;;;;;22.77;39.40;100259.78;10271280;29;20057;-82
2022/05/26 16:05:49;;;;;;;0.95;0.40;;;;;;;21.30;41.05;100265.56;10253447;28;20492;-82
2022/05/26 16:10:50;;;;;;;1.48;0.70;;;;;;;21.02;41.19;100250.63;10276147;28;20489;-80
2022/05/26 16:15:52;;;;;;;3.22;0.80;;;;;;;21.30;43.12;100246.00;10278298;28;20502;-82
2022/05/26 16:20:54;;;;;;;1.63;0.70;;;;;;;21.45;42.46;100252.06;10264092;29;20043;-82
2022/05/26 16:25:57;;;;;;;2.97;0.70;;;;;;;21.37;41.31;100252.59;10278803;28;20047;-82
2022/05/26 16:30:59;;;;;;;1.35;0.80;;;;;;;21.35;40.93;100251.88;10277920;29;20039;-82
2022/05/26 16:41:22;;;;;;;1.55;1.23;;;;;;;20.75;41.74;100252.59;10273771;29;20039;-82
2022/05/26 16:46:23;;;;;;;1.95;1.08;;;;;;;20.69;41.39;100243.22;10277375;28;20051;-82
2022/05/26 16:51:25;;;;;;;2.17;1.13;;;;;;;20.80;41.03;100253.13;10281528;29;20046;-82
2022/05/26 16:56:26;;;;;;;2.35;1.15;;;;;;;20.50;41.96;100257.00;10282811;28;20044;-81
2022/05/26 17:01:28;;;;;;;1.75;1.50;;;;;;;20.24;43.51;100258.78;10292224;28;20035;-81
2022/05/26 17:06:29;;;;;;;3.42;1.20;;;;;;;20.06;44.46;100254.69;10291564;28;20054;-81
2022/05/26 17:11:31;;;;;;;1.52;1.10;;;;;;;20.20;44.05;100261.75;10279550;28;20051;-81
2022/05/26 17:22:06;;;;;;;1.55;1.10;;;;;;;20.05;45.60;100264.47;10294226;29;20504;-82
2022/05/26 17:27:16;;;;;;;5.88;1.00;;;;;;;20.02;44.98;100261.19;10296231;28;20047;-81
2022/05/26 17:32:17;;;;;;;1.98;1.10;;;;;;;19.94;44.91;100263.50;10290415;29;20043;-82
2022/05/26 17:37:19;;;;;;;3.05;1.10;;;;;;;19.86;45.76;100266.69;10282448;28;20043;-82
2022/05/26 17:42:21;;;;;;;3.00;1.10;;;;;;;19.92;46.19;100260.91;10280430;29;20047;-82
2022/05/26 17:47:22;;;;;;;2.35;1.40;;;;;;;19.83;46.61;100256.19;10265203;29;20043;-81
2022/05/26 17:52:24;;;;;;;4.20;1.15;;;;;;;19.78;45.84;100247.66;10284097;28;20040;-79
2022/05/26 17:57:30;;;;;;;2.10;1.15;;;;;;;19.71;46.12;100246.38;10291117;28;20054;-80
2022/05/26 18:02:33;;;;;;;1.95;1.30;;;;;;;19.71;46.06;100249.03;10290704;29;20070;-81
2022/05/26 18:07:37;;;;;;;1.58;1.10;;;;;;;19.43;47.25;100240.13;10293515;28;20078;-81
2022/05/26 18:12:39;;;;;;;2.75;1.13;;;;;;;19.57;46.76;100242.78;10290606;29;20109;-81
2022/05/26 18:17:41;;;;;;;2.58;1.20;;;;;;;19.47;47.00;100238.13;10292679;28;20032;-80
2022/05/26 18:22:48;;;;;;;1.95;1.20;;;;;;;19.52;47.01;100236.00;10291055;28;20051;-80
2022/05/26 18:27:50;;;;;;;2.72;1.13;;;;;;;19.42;47.13;100235.75;10283820;28;20069;-81
2022/05/26 18:32:52;;;;;;;3.22;1.00;;;;;;;19.46;47.03;100237.28;10286790;28;20047;-81
2022/05/26 18:37:54;;;;;;;2.22;1.48;;;;;;;19.36;47.28;100236.19;10282353;29;20047;-81
2022/05/26 18:42:55;;;;;;;4.60;0.70;;;;;;;19.33;47.16;100233.69;10278476;28;20452;-81
2022/05/26 18:48:06;;;;;;;2.10;1.40;;;;;;;19.25;47.28;100228.84;10276515;29;20058;-81
2022/05/26 18:53:08;;;;;;;2.00;1.08;;;;;;;19.10;47.93;100236.03;10274937;28;20094;-81
2022/05/26 18:58:14;;;;;;;1.75;0.95;;;;;;;19.01;48.44;100241.94;10282629;29;20073;-81
2022/05/26 19:03:16;;;;;;;2.47;1.08;;;;;;;18.99;48.82;100232.34;10282653;28;20051;-81
2022/05/26 19:08:18;;;;;;;1.67;1.00;;;;;;;19.13;47.62;100238.53;10282629;29;20051;-81
2022/05/26 19:13:28;;;;;;;2.28;1.20;;;;;;;19.18;47.52;100242.69;10281650;28;20039;-81
2022/05/26 19:18:31;;;;;;;4.75;1.30;;;;;;;19.12;47.82;100255.47;10283499;28;20043;-83
2022/05/26 19:23:32;;;;;;;3.10;1.05;;;;;;;18.97;48.41;100245.75;10284340;28;20039;-82
2022/05/26 19:28:44;;;;;;;1.67;1.00;;;;;;;18.92;48.30;100255.84;10282133;29;20054;-82
2022/05/26 19:33:45;;;;;;;1.85;0.90;;;;;;;18.78;49.39;100255.88;10265997;28;20052;-82
2022/05/26 19:38:47;;;;;;;1.35;0.90;;;;;;;18.95;48.11;100268.09;10283049;29;20167;-82
2022/05/26 19:43:49;;;;;;;1.33;0.80;;;;;;;18.83;48.82;100262.63;10281614;28;20047;-81
2022/05/26 19:48:51;;;;;;;2.90;1.13;;;;;;;18.78;49.07;100263.84;10282435;29;20098;-82
2022/05/26 19:53:53;;;;;;;2.30;1.00;;;;;;;18.76;48.94;100260.41;10278365;28;20056;-81
2022/05/26 19:58:55;;;;;;;3.63;0.90;;;;;;;18.77;49.16;100260.34;10275859;29;20097;-81
2022/05/26 20:03:56;;;;;;;2.33;0.88;;;;;;;18.66;49.35;100258.28;10276643;28;20051;-82
2022/05/26 20:08:59;;;;;;;2.92;0.93;;;;;;;18.75;49.20;100262.22;10260316;28;20051;-82
2022/05/26 20:14:01;;;;;;;1.60;0.80;;;;;;;18.67;48.93;100260.00;10279249;28;20069;-82
2022/05/26 20:19:04;;;;;;;1.60;1.00;;;;;;;18.80;48.78;100254.81;10278187;29;20043;-81
2022/05/26 20:24:06;;;;;;;1.73;0.93;;;;;;;18.77;48.71;100248.81;10277489;28;20055;-83
2022/05/26 20:34:30;;;;;;;1.75;0.77;;;;;;;18.73;48.71;100248.16;10262395;28;20047;-83
2022/05/26 20:39:37;;;;;;;1.75;0.80;;;;;;;18.70;49.01;100239.50;10265276;28;20043;-84
2022/05/26 20:44:40;;;;;;;1.48;0.90;;;;;;;18.66;49.04;100236.16;10265310;28;20044;-84
2022/05/26 20:49:48;;;;;;;1.45;0.98;;;;;;;18.48;49.41;100239.94;10286620;29;20057;-83
2022/05/26 20:54:49;;;;;;;2.08;1.08;;;;;;;18.51;49.21;100234.44;10300058;28;20058;-82
2022/05/26 20:59:52;;;;;;;2.25;0.90;;;;;;;18.59;49.06;100226.81;10284857;28;20055;-84
2022/05/26 21:04:54;;;;;;;1.17;0.75;;;;;;;18.62;48.79;100235.47;10249167;28;20043;-84
2022/05/26 21:09:57;;;;;;;1.50;0.90;;;;;;;18.52;49.39;100236.16;10264443;28;20145;-84
2022/05/26 21:15:00;;;;;;;3.40;1.00;;;;;;;18.46;49.66;100229.41;10293834;28;20074;-84
2022/05/26 21:20:01;;;;;;;1.23;0.70;;;;;;;18.50;49.60;100222.91;10293562;29;20057;-84
2022/05/26 21:25:05;;;;;;;1.92;0.80;;;;;;;18.52;49.34;100215.69;10276535;28;20043;-84
2022/05/26 21:30:08;;;;;;;3.28;0.93;;;;;;;18.60;49.02;100221.41;10262430;28;20416;-85
2022/05/26 21:35:14;;;;;;;1.95;1.00;;;;;;;18.41;49.37;100210.16;10261154;28;20039;-84
2022/05/26 21:40:16;;;;;;;1.10;0.70;;;;;;;18.43;49.30;100197.63;10257583;29;20059;-85
2022/05/26 21:45:24;;;;;;;2.17;0.90;;;;;;;18.23;49.99;100195.34;10257223;28;20039;-85
2022/05/26 21:50:25;;;;;;;0.65;0.60;;;;;;;18.02;50.37;100197.50;10259129;28;20047;-85
2022/05/26 21:55:30;;;;;;;1.20;0.82;;;;;;;18.08;50.28;100195.31;10257094;28;20047;-85
2022/05/26 22:01:08;;;;;;;1.38;0.93;;;;;;;18.01;50.55;100204.59;10258378;29;20052;-85
2022/05/26 22:11:32;;;;;;;3.03;0.90;;;;;;;17.91;50.86;100192.81;10283816;29;20074;-85
2022/05/26 22:16:55;;;;;;;1.67;0.80;;;;;;;17.86;51.04;100194.91;10255772;28;20497;-83
2022/05/26 22:22:07;;;;;;;4.35;0.90;;;;;;;17.83;51.12;100185.28;10257754;28;20137;-83
2022/05/26 22:27:10;;;;;;;1.98;1.10;;;;;;;17.79;51.22;100181.09;10267835;28;20056;-83
2022/05/26 22:32:15;;;;;;;2.03;0.80;;;;;;;17.88;51.12;100171.72;10283695;28;20051;-83
2022/05/26 22:37:18;;;;;;;1.13;0.60;;;;;;;17.92;51.12;100175.03;10265283;28;20059;-83
2022/05/26 22:42:24;;;;;;;1.40;0.80;;;;;;;17.78;51.36;100163.44;10267383;29;20043;-85
2022/05/26 22:47:29;;;;;;;;;;;;;;;17.88;51.21;100163.72;10269015;28;20077;-84
2022/05/26 22:52:31;;;;;;;1.20;0.57;;;;;;;17.85;51.45;100150.63;10269917;29;19923;-84
2022/05/26 22:57:36;;;;;;;1.02;0.60;;;;;;;17.93;51.12;100152.81;10264814;28;20047;-84
2022/05/26 23:02:37;;;;;;;6.35;0.63;;;;;;;17.92;51.25;100140.47;10264668;29;20105;-84
2022/05/26 23:07:39;;;;;;;0.75;0.50;;;;;;;18.03;50.91;100140.69;10273533;28;20134;-85
2022/05/26 23:12:41;;;;;;;1.30;0.55;;;;;;;17.95;51.35;100138.50;10266880;29;20048;-85
2022/05/26 23:17:42;;;;;;;1.23;0.40;;;;;;;18.15;50.44;100137.28;10265138;28;20408;-85
2022/05/26 23:22:44;;;;;;;1.33;0.60;;;;;;;18.24;50.37;100134.06;10285592;28;20086;-83
2022/05/26 23:27:46;;;;;;;0.98;0.60;;;;;;;18.14;50.80;100116.94;10295989;28;20054;-84
2022/05/26 23:32:47;;;;;;;1.73;0.60;;;;;;;18.25;50.41;100124.28;10267169;28;20040;-84
2022/05/26 23:37:52;;;;;;;2.47;0.63;;;;;;;18.25;50.49;100122.47;10234849;29;20093;-84
2022/05/26 23:48:17;;;;;;;0.90;0.60;;;;;;;18.30;50.02;100104.41;10268770;28;20047;-84
2022/05/26 23:53:20;;;;;;;0.88;0.50;;;;;;;18.10;50.64;100102.97;10267665;28;20559;-84
2022/05/26 23:58:22;;;;;;;2.13;0.50;;;;;;;18.10;50.72;100097.63;10266857;29;20096;-85
